createdAt,value
2022-12-03T00:00:32.242Z,101996.72
2022-12-03T00:03:17.538Z,101983.88
2022-12-03T00:06:02.632Z,102003.56
2022-12-03T00:08:47.652Z,102000.22
2022-12-03T00:11:32.732Z,102005.22
2022-12-03T00:14:17.929Z,101999.38
2022-12-03T00:17:03.218Z,101992.44
2022-12-03T00:19:48.580Z,101986.53
2022-12-03T00:22:33.864Z,101991.47
2022-12-03T00:25:19.393Z,101977.13
2022-12-03T00:28:04.692Z,101994.19
2022-12-03T00:30:49.958Z,101988.91
2022-12-03T00:33:35.087Z,101961.47
2022-12-03T00:36:20.597Z,101974.25
2022-12-03T00:39:05.790Z,101977.75
2022-12-03T00:41:50.967Z,101966.63
2022-12-03T00:44:36.282Z,101986.28
2022-12-03T00:47:21.514Z,101968.31
2022-12-03T00:50:08.224Z,101958.69
2022-12-03T00:52:53.216Z,101975.69
2022-12-03T00:55:38.484Z,101965.28
2022-12-03T00:58:23.744Z,101984.31
2022-12-03T01:01:08.888Z,101975.75
2022-12-03T01:03:54.100Z,101960.44
2022-12-03T01:06:39.209Z,101974.94
2022-12-03T01:09:24.501Z,101974.09
2022-12-03T01:12:09.944Z,101981.88
2022-12-03T01:14:55.399Z,101976.69
2022-12-03T01:17:40.835Z,101977.47
2022-12-03T01:20:26.362Z,101967.00
2022-12-03T01:23:12.218Z,101979.09
2022-12-03T01:25:57.528Z,101974.84
2022-12-03T01:28:42.918Z,101974.88
2022-12-03T01:31:46.951Z,101982.00
2022-12-03T01:34:32.133Z,101978.56
2022-12-03T01:37:18.314Z,101968.59
2022-12-03T01:40:04.948Z,101978.09
2022-12-03T01:42:49.965Z,101978.81
2022-12-03T01:45:35.472Z,101974.44
2022-12-03T01:48:20.727Z,101966.97
2022-12-03T01:51:07.091Z,101984.97
2022-12-03T01:53:52.292Z,101965.25
2022-12-03T01:56:37.422Z,101955.09
2022-12-03T01:59:34.253Z,101966.31
2022-12-03T02:02:31.047Z,101961.13
2022-12-03T02:05:26.176Z,101970.69
2022-12-03T02:08:31.711Z,101964.63
2022-12-03T02:11:26.280Z,101957.81
2022-12-03T02:14:16.292Z,101971.63
2022-12-03T02:17:01.662Z,101961.22
2022-12-03T02:19:47.205Z,101970.69
2022-12-03T02:23:00.485Z,101962.25
2022-12-03T02:25:45.703Z,101965.75
2022-12-03T02:28:31.462Z,101962.34
2022-12-03T02:31:16.725Z,101959.72
2022-12-03T02:34:08.513Z,101960.56
2022-12-03T02:36:53.689Z,101952.69
2022-12-03T02:39:42.833Z,101956.03
2022-12-03T02:42:37.894Z,101940.69
2022-12-03T02:45:38.104Z,101966.41
2022-12-03T02:48:27.736Z,101953.41
2022-12-03T02:51:12.965Z,101955.28
2022-12-03T02:53:59.258Z,101946.72
2022-12-03T02:56:44.508Z,101945.81
2022-12-03T02:59:29.730Z,101953.63
2022-12-03T03:02:15.201Z,101951.09
2022-12-03T03:05:00.452Z,101929.06
2022-12-03T03:07:46.500Z,101922.16
2022-12-03T03:10:34.256Z,101927.22
2022-12-03T03:13:20.741Z,101935.72
2022-12-03T03:16:07.412Z,101950.28
2022-12-03T03:18:52.669Z,101923.56
2022-12-03T03:21:37.715Z,101937.19
2022-12-03T03:24:23.264Z,101939.84
2022-12-03T03:27:08.541Z,101945.00
2022-12-03T03:29:53.842Z,101941.50
2022-12-03T03:32:40.036Z,101944.25
2022-12-03T03:35:25.514Z,101935.78
2022-12-03T03:38:10.882Z,101944.25
2022-12-03T03:40:58.026Z,101921.03
2022-12-03T03:43:46.017Z,101933.78
2022-12-03T03:46:33.357Z,101927.84
2022-12-03T03:49:18.816Z,101899.66
2022-12-03T03:52:04.542Z,101938.81
2022-12-03T03:54:49.887Z,101928.50
2022-12-03T03:57:35.070Z,101933.94
2022-12-03T04:00:20.672Z,101931.31
2022-12-03T04:03:06.454Z,101933.03
2022-12-03T04:05:51.794Z,101921.72
2022-12-03T04:08:36.979Z,101918.97
2022-12-03T04:11:40.792Z,101923.22
2022-12-03T04:14:26.133Z,101921.69
2022-12-03T04:17:11.262Z,101890.09
2022-12-03T04:19:56.708Z,101921.50
2022-12-03T04:22:41.840Z,101898.38
2022-12-03T04:25:45.592Z,101918.03
2022-12-03T04:28:49.147Z,101914.50
2022-12-03T04:32:03.343Z,101915.50
2022-12-03T04:35:06.687Z,101905.34
2022-12-03T04:37:51.701Z,101918.19
2022-12-03T04:40:56.013Z,101917.09
2022-12-03T04:44:01.201Z,101907.72
2022-12-03T04:46:46.063Z,101893.91
2022-12-03T04:49:31.473Z,101917.09
2022-12-03T04:52:18.321Z,101909.31
2022-12-03T04:55:03.907Z,101912.91
2022-12-03T04:57:49.008Z,101914.69
2022-12-03T05:00:33.960Z,101914.78
2022-12-03T05:03:19.237Z,101901.09
2022-12-03T05:06:04.489Z,101899.44
2022-12-03T05:08:49.732Z,101906.38
2022-12-03T05:11:35.368Z,101901.91
2022-12-03T05:14:20.333Z,101898.41
2022-12-03T05:17:05.503Z,101892.28
2022-12-03T05:20:09.319Z,101887.97
2022-12-03T05:22:54.487Z,101887.88
2022-12-03T05:25:41.044Z,101886.22
2022-12-03T05:28:26.466Z,101874.25
2022-12-03T05:31:11.938Z,101876.69
2022-12-03T05:33:57.162Z,101876.69
2022-12-03T05:36:42.459Z,101871.56
2022-12-03T05:39:27.448Z,101869.69
2022-12-03T05:42:31.144Z,101872.25
2022-12-03T05:45:16.424Z,101850.97
2022-12-03T05:48:02.798Z,101868.06
2022-12-03T05:50:48.161Z,101861.91
2022-12-03T05:53:33.302Z,101852.53
2022-12-03T05:56:18.464Z,101855.00
2022-12-03T05:59:03.435Z,101847.94
2022-12-03T06:01:48.682Z,101859.00
2022-12-03T06:04:33.913Z,101841.91
2022-12-03T06:07:19.090Z,101836.88
2022-12-03T06:10:09.359Z,101850.53
2022-12-03T06:12:55.237Z,101847.03
2022-12-03T06:15:43.711Z,101859.88
2022-12-03T06:18:29.571Z,101850.44
2022-12-03T06:21:14.625Z,101849.66
2022-12-03T06:23:59.983Z,101844.41
2022-12-03T06:26:45.059Z,101854.69
2022-12-03T06:29:30.415Z,101843.41
2022-12-03T06:32:15.892Z,101839.88
2022-12-03T06:35:01.093Z,101838.22
2022-12-03T06:37:46.357Z,101839.00
2022-12-03T06:40:31.670Z,101832.94
2022-12-03T06:43:16.803Z,101823.53
2022-12-03T06:46:02.221Z,101832.06
2022-12-03T06:48:47.231Z,101825.19
2022-12-03T06:51:32.274Z,101826.81
2022-12-03T06:54:17.375Z,101822.38
2022-12-03T06:57:02.707Z,101823.22
2022-12-03T06:59:48.039Z,101824.16
2022-12-03T07:02:33.344Z,101820.50
2022-12-03T07:05:18.522Z,101820.59
2022-12-03T07:08:03.981Z,101813.72
2022-12-03T07:10:49.229Z,101813.66
2022-12-03T07:13:34.284Z,101812.75
2022-12-03T07:16:19.383Z,101815.38
2022-12-03T07:19:06.380Z,101812.59
2022-12-03T07:21:51.437Z,101817.75
2022-12-03T07:24:36.320Z,101803.22
2022-12-03T07:27:21.512Z,101788.50
2022-12-03T07:30:08.284Z,101791.16
2022-12-03T07:32:53.882Z,101797.72
2022-12-03T07:35:39.055Z,101792.38
2022-12-03T07:38:24.666Z,101773.66
2022-12-03T07:41:09.700Z,101783.81
2022-12-03T07:43:55.023Z,101794.97
2022-12-03T07:46:40.406Z,101785.38
2022-12-03T07:49:26.696Z,101774.88
2022-12-03T07:52:11.751Z,101768.16
2022-12-03T07:54:56.934Z,101772.06
2022-12-03T07:57:41.943Z,101781.47
2022-12-03T08:00:27.245Z,101763.56
2022-12-03T08:03:12.352Z,101776.09
2022-12-03T08:05:57.574Z,101779.63
2022-12-03T08:08:43.799Z,101781.28
2022-12-03T08:11:29.473Z,101767.47
2022-12-03T08:14:16.944Z,101763.88
2022-12-03T08:17:02.073Z,101762.25
2022-12-03T08:19:48.119Z,101770.59
2022-12-03T08:22:33.141Z,101773.94
2022-12-03T08:25:33.711Z,101771.25
2022-12-03T08:28:26.763Z,101762.53
2022-12-03T08:31:20.762Z,101770.44
2022-12-03T08:34:21.507Z,101767.97
2022-12-03T08:37:20.096Z,101767.09
2022-12-03T08:40:19.827Z,101762.84
2022-12-03T08:43:19.302Z,101764.72
2022-12-03T08:46:04.729Z,101745.94
2022-12-03T08:48:49.913Z,101746.75
2022-12-03T08:51:35.223Z,101729.00
2022-12-03T08:54:20.419Z,101756.41
2022-12-03T08:57:34.636Z,101765.06
2022-12-03T09:00:22.737Z,101758.09
2022-12-03T09:03:16.414Z,101745.59
2022-12-03T09:06:02.051Z,101760.16
2022-12-03T09:08:47.543Z,101762.84
2022-12-03T09:11:32.568Z,101763.75
2022-12-03T09:14:18.858Z,101763.97
2022-12-03T09:17:04.489Z,101757.06
2022-12-03T09:19:49.565Z,101752.38
2022-12-03T09:22:34.902Z,101757.41
2022-12-03T09:25:20.242Z,101757.25
2022-12-03T09:28:05.815Z,101752.03
2022-12-03T09:30:51.363Z,101754.50
2022-12-03T09:33:37.169Z,101745.94
2022-12-03T09:36:22.680Z,101736.25
2022-12-03T09:39:07.938Z,101721.59
2022-12-03T09:41:53.364Z,101738.06
2022-12-03T09:44:38.739Z,101738.63
2022-12-03T09:47:24.033Z,101732.69
2022-12-03T09:50:18.980Z,101740.31
2022-12-03T09:53:04.127Z,101740.69
2022-12-03T09:55:49.943Z,101729.38
2022-12-03T09:58:35.591Z,101735.13
2022-12-03T10:01:21.174Z,101736.72
2022-12-03T10:04:06.362Z,101733.94
2022-12-03T10:06:51.676Z,101735.22
2022-12-03T10:09:36.960Z,101737.25
2022-12-03T10:12:24.586Z,101715.13
2022-12-03T10:15:18.265Z,101730.19
2022-12-03T10:18:19.262Z,101727.97
2022-12-03T10:21:24.342Z,101722.34
2022-12-03T10:24:24.010Z,101708.75
2022-12-03T10:27:23.049Z,101716.53
2022-12-03T10:30:20.101Z,101711.38
2022-12-03T10:33:19.184Z,101710.38
2022-12-03T10:36:26.393Z,101705.19
2022-12-03T10:39:16.608Z,101712.91
2022-12-03T10:42:15.903Z,101700.69
2022-12-03T10:45:13.213Z,101704.25
2022-12-03T10:48:06.372Z,101677.03
2022-12-03T10:50:55.775Z,101645.25
2022-12-03T10:53:41.356Z,101682.66
2022-12-03T10:56:27.520Z,101686.25
2022-12-03T10:59:22.791Z,101656.50
2022-12-03T11:02:21.099Z,101659.91
2022-12-03T11:05:06.610Z,101675.78
2022-12-03T11:07:51.712Z,101673.19
2022-12-03T11:10:36.991Z,101656.81
2022-12-03T11:13:34.405Z,101654.00
2022-12-03T11:16:41.235Z,101651.41
2022-12-03T11:19:44.689Z,101646.84
2022-12-03T11:22:40.709Z,101640.00
2022-12-03T11:25:26.449Z,101641.72
2022-12-03T11:28:14.547Z,101633.84
2022-12-03T11:31:03.191Z,101619.00
2022-12-03T11:33:48.586Z,101611.69
2022-12-03T11:37:00.305Z,101618.28
2022-12-03T11:39:44.892Z,101611.28
2022-12-03T11:42:38.835Z,101609.63
2022-12-03T11:45:30.370Z,101616.56
2022-12-03T11:48:16.196Z,101608.03
2022-12-03T11:51:01.216Z,101615.84
2022-12-03T11:53:47.050Z,101608.09
2022-12-03T11:56:31.994Z,101618.31
2022-12-03T11:59:18.452Z,101587.56
2022-12-03T12:02:20.511Z,101592.53
2022-12-03T12:05:19.046Z,101606.94
2022-12-03T12:08:04.430Z,101600.84
2022-12-03T12:10:49.709Z,101603.38
2022-12-03T12:13:35.055Z,101606.91
2022-12-03T12:16:38.911Z,101595.81
2022-12-03T12:19:34.939Z,101594.22
2022-12-03T12:22:24.912Z,101594.22
2022-12-03T12:25:32.357Z,101581.28
2022-12-03T12:28:17.746Z,101579.75
2022-12-03T12:31:03.023Z,101587.44
2022-12-03T12:33:48.031Z,101577.72
2022-12-03T12:36:34.155Z,101554.63
2022-12-03T12:39:19.338Z,101552.81
2022-12-03T12:42:31.332Z,101573.22
2022-12-03T12:45:20.738Z,101570.69
2022-12-03T12:48:17.256Z,101565.59
2022-12-03T12:51:14.078Z,101569.81
2022-12-03T12:53:59.475Z,101563.78
2022-12-03T12:56:47.639Z,101568.97
2022-12-03T12:59:32.775Z,101564.44
2022-12-03T13:02:38.492Z,101553.50
2022-12-03T13:05:27.680Z,101547.06
2022-12-03T13:08:39.998Z,101559.25
2022-12-03T13:11:25.322Z,101561.84
2022-12-03T13:14:22.464Z,101560.94
2022-12-03T13:17:24.346Z,101551.44
2022-12-03T13:20:17.970Z,101530.06
2022-12-03T13:23:16.052Z,101540.09
2022-12-03T13:26:28.449Z,101523.38
2022-12-03T13:29:20.827Z,101541.19
2022-12-03T13:32:13.638Z,101539.47
2022-12-03T13:35:05.060Z,101529.06
2022-12-03T13:37:50.399Z,101525.69
2022-12-03T13:40:36.187Z,101525.44
2022-12-03T13:43:21.115Z,101520.50
2022-12-03T13:46:06.384Z,101519.53
2022-12-03T13:48:51.653Z,101508.25
2022-12-03T13:51:36.891Z,101500.03
2022-12-03T13:54:27.779Z,101482.22
2022-12-03T13:57:12.916Z,101500.88
2022-12-03T13:59:58.028Z,101504.94
2022-12-03T14:02:43.648Z,101511.16
2022-12-03T14:05:29.335Z,101507.56
2022-12-03T14:08:14.343Z,101500.59
2022-12-03T14:11:00.925Z,101509.91
2022-12-03T14:13:46.335Z,101507.69
2022-12-03T14:16:31.677Z,101500.56
2022-12-03T14:19:16.820Z,101503.13
2022-12-03T14:22:02.477Z,101492.47
2022-12-03T14:24:47.396Z,101507.19
2022-12-03T14:27:32.687Z,101497.13
2022-12-03T14:30:18.214Z,101508.22
2022-12-03T14:33:03.323Z,101505.53
2022-12-03T14:35:48.611Z,101496.22
2022-12-03T14:38:33.805Z,101495.50
2022-12-03T14:41:37.429Z,101489.66
2022-12-03T14:44:23.575Z,101492.94
2022-12-03T14:47:09.131Z,101482.91
2022-12-03T14:49:54.735Z,101488.78
2022-12-03T14:52:40.758Z,101483.25
2022-12-03T14:55:25.941Z,101492.34
2022-12-03T14:58:11.199Z,101494.00
2022-12-03T15:00:56.316Z,101478.19
2022-12-03T15:03:41.332Z,101492.13
2022-12-03T15:06:26.622Z,101477.47
2022-12-03T15:09:12.079Z,101493.66
2022-12-03T15:11:57.641Z,101474.16
2022-12-03T15:14:42.796Z,101485.84
2022-12-03T15:17:31.983Z,101484.28
2022-12-03T15:20:17.332Z,101491.03
2022-12-03T15:23:02.634Z,101484.03
2022-12-03T15:25:47.972Z,101488.59
2022-12-03T15:28:33.134Z,101487.06
2022-12-03T15:31:18.504Z,101482.78
2022-12-03T15:34:03.712Z,101482.69
2022-12-03T15:36:48.880Z,101487.03
2022-12-03T15:39:35.888Z,101484.47
2022-12-03T15:42:21.282Z,101483.69
2022-12-03T15:45:09.598Z,101487.88
2022-12-03T15:47:59.152Z,101487.06
2022-12-03T15:50:44.313Z,101498.38
2022-12-03T15:53:29.229Z,101491.69
2022-12-03T15:56:14.366Z,101486.50
2022-12-03T15:58:59.552Z,101471.19
2022-12-03T16:01:44.646Z,101485.63
2022-12-03T16:04:29.765Z,101472.34
2022-12-03T16:07:14.937Z,101490.13
2022-12-03T16:10:01.929Z,101484.00
2022-12-03T16:12:47.481Z,101490.06
2022-12-03T16:15:32.508Z,101491.69
2022-12-03T16:18:17.766Z,101466.88
2022-12-03T16:21:03.079Z,101490.63
2022-12-03T16:23:48.384Z,101486.50
2022-12-03T16:26:33.566Z,101487.41
2022-12-03T16:29:18.868Z,101479.63
2022-12-03T16:32:04.215Z,101495.38
2022-12-03T16:34:49.514Z,101487.47
2022-12-03T16:37:34.687Z,101482.38
2022-12-03T16:40:19.961Z,101483.91
2022-12-03T16:43:05.246Z,101473.56
2022-12-03T16:45:56.525Z,101483.91
2022-12-03T16:48:41.811Z,101479.78
2022-12-03T16:51:28.482Z,101472.94
2022-12-03T16:54:13.461Z,101468.88
2022-12-03T16:56:58.844Z,101479.78
2022-12-03T16:59:44.008Z,101452.66
2022-12-03T17:02:29.346Z,101483.22
2022-12-03T17:05:14.622Z,101454.16
2022-12-03T17:07:59.702Z,101448.13
2022-12-03T17:10:45.468Z,101470.22
2022-12-03T17:13:30.544Z,101454.72
2022-12-03T17:16:15.956Z,101470.69
2022-12-03T17:19:01.284Z,101466.44
2022-12-03T17:21:46.555Z,101458.69
2022-12-03T17:24:31.874Z,101464.81
2022-12-03T17:27:17.133Z,101431.56
2022-12-03T17:30:02.655Z,101467.28
2022-12-03T17:32:50.322Z,101464.69
2022-12-03T17:35:35.491Z,101467.28
2022-12-03T17:38:20.816Z,101440.16
2022-12-03T17:41:07.431Z,101454.53
2022-12-03T17:43:53.896Z,101457.00
2022-12-03T17:46:39.062Z,101452.09
2022-12-03T17:49:29.917Z,101457.16
2022-12-03T17:52:16.288Z,101452.69
2022-12-03T17:55:27.718Z,101434.09
2022-12-03T17:58:06.520Z,101452.00
2022-12-03T18:00:51.418Z,101448.41
2022-12-03T18:03:37.360Z,101450.91
2022-12-03T18:06:23.883Z,101444.75
2022-12-03T18:09:09.019Z,101447.31
2022-12-03T18:11:54.151Z,101449.88
2022-12-03T18:14:39.215Z,101446.59
2022-12-03T18:17:24.427Z,101445.69
2022-12-03T18:20:09.720Z,101442.91
2022-12-03T18:22:55.064Z,101434.34
2022-12-03T18:25:41.439Z,101437.03
2022-12-03T18:28:26.624Z,101420.63
2022-12-03T18:31:17.629Z,101436.94
2022-12-03T18:34:02.980Z,101432.91
2022-12-03T18:36:48.954Z,101433.63
2022-12-03T18:39:36.749Z,101439.63
2022-12-03T18:42:23.295Z,101428.59
2022-12-03T18:45:11.411Z,101412.63
2022-12-03T18:47:56.573Z,101426.97
2022-12-03T18:50:43.221Z,101415.97
2022-12-03T18:53:28.515Z,101434.72
2022-12-03T18:56:14.584Z,101435.50
2022-12-03T18:58:59.552Z,101426.13
2022-12-03T19:01:45.060Z,101423.50
2022-12-03T19:04:30.612Z,101409.84
2022-12-03T19:07:15.731Z,101416.63
2022-12-03T19:10:00.843Z,101422.63
2022-12-03T19:12:46.033Z,101403.97
2022-12-03T19:15:31.338Z,101436.41
2022-12-03T19:18:16.576Z,101408.28
2022-12-03T19:21:07.285Z,101415.66
2022-12-03T19:24:22.627Z,101420.69
2022-12-03T19:26:57.368Z,101422.44
2022-12-03T19:29:42.603Z,101415.72
2022-12-03T19:32:27.583Z,101422.38
2022-12-03T19:35:12.613Z,101417.22
2022-12-03T19:37:58.442Z,101415.50
2022-12-03T19:40:43.718Z,101413.78
2022-12-03T19:43:29.135Z,101415.50
2022-12-03T19:46:14.131Z,101410.28
2022-12-03T19:48:59.347Z,101393.34
2022-12-03T19:51:44.702Z,101411.19
2022-12-03T19:54:30.112Z,101417.31
2022-12-03T19:57:21.506Z,101406.09
2022-12-03T20:00:09.117Z,101407.78
2022-12-03T20:02:54.393Z,101402.59
2022-12-03T20:05:40.850Z,101387.50
2022-12-03T20:08:25.880Z,101394.19
2022-12-03T20:11:14.504Z,101396.72
2022-12-03T20:14:03.374Z,101388.06
2022-12-03T20:16:48.445Z,101397.38
2022-12-03T20:19:33.996Z,101397.22
2022-12-03T20:22:19.288Z,101367.38
2022-12-03T20:25:05.147Z,101384.47
2022-12-03T20:27:50.430Z,101392.97
2022-12-03T20:30:35.688Z,101388.69
2022-12-03T20:33:20.972Z,101387.06
2022-12-03T20:36:06.727Z,101358.06
2022-12-03T20:38:56.402Z,101378.34
2022-12-03T20:41:41.783Z,101357.91
2022-12-03T20:44:26.645Z,101374.94
2022-12-03T20:47:11.578Z,101375.03
2022-12-03T20:49:56.829Z,101374.94
2022-12-03T20:52:52.899Z,101376.56
2022-12-03T20:55:58.672Z,101376.53
2022-12-03T20:58:43.555Z,101373.22
2022-12-03T21:01:29.079Z,101370.59
2022-12-03T21:04:14.679Z,101362.34
2022-12-03T21:06:59.652Z,101373.22
2022-12-03T21:09:44.642Z,101381.00
2022-12-03T21:12:30.023Z,101376.56
2022-12-03T21:15:15.416Z,101364.78
2022-12-03T21:18:00.917Z,101369.94
2022-12-03T21:20:47.772Z,101358.88
2022-12-03T21:23:33.959Z,101373.44
2022-12-03T21:26:21.756Z,101385.53
2022-12-03T21:29:07.219Z,101377.78
2022-12-03T21:31:52.690Z,101383.16
2022-12-03T21:34:37.976Z,101383.22
2022-12-03T21:37:23.415Z,101395.16
2022-12-03T21:40:08.792Z,101389.94
2022-12-03T21:42:53.851Z,101397.78
2022-12-03T21:45:42.447Z,101390.91
2022-12-03T21:48:27.729Z,101396.84
2022-12-03T21:51:15.434Z,101388.16
2022-12-03T21:54:00.812Z,101385.72
2022-12-03T21:56:46.097Z,101387.50
2022-12-03T21:59:31.368Z,101386.66
2022-12-03T22:02:16.723Z,101382.38
2022-12-03T22:05:02.016Z,101378.91
2022-12-03T22:07:47.300Z,101377.28
2022-12-03T22:10:33.174Z,101380.50
2022-12-03T22:13:18.259Z,101372.88
2022-12-03T22:16:12.498Z,101358.47
2022-12-03T22:18:57.468Z,101372.88
2022-12-03T22:21:42.806Z,101351.78
2022-12-03T22:24:28.085Z,101350.97
2022-12-03T22:27:16.305Z,101345.91
2022-12-03T22:30:01.923Z,101362.66
2022-12-03T22:32:47.204Z,101366.13
2022-12-03T22:35:32.122Z,101355.84
2022-12-03T22:38:17.481Z,101356.72
2022-12-03T22:41:11.449Z,101355.16
2022-12-03T22:43:56.525Z,101326.78
2022-12-03T22:46:41.836Z,101342.75
2022-12-03T22:49:27.419Z,101348.69
2022-12-03T22:52:12.629Z,101346.28
2022-12-03T22:54:57.957Z,101335.88
2022-12-03T22:57:43.229Z,101345.34
2022-12-03T23:00:34.342Z,101338.66
2022-12-03T23:03:24.953Z,101331.66
2022-12-03T23:06:11.348Z,101336.84
2022-12-03T23:08:57.888Z,101334.38
2022-12-03T23:11:45.170Z,101335.31
2022-12-03T23:14:30.154Z,101325.66
2022-12-03T23:17:15.052Z,101334.41
2022-12-03T23:20:00.099Z,101326.56
2022-12-03T23:22:45.418Z,101318.84
2022-12-03T23:25:30.622Z,101320.56
2022-12-03T23:28:15.627Z,101316.16
2022-12-03T23:31:00.788Z,101326.44
2022-12-03T23:33:46.674Z,101298.66
2022-12-03T23:36:33.642Z,101334.16
2022-12-03T23:39:18.767Z,101323.03
2022-12-03T23:42:04.033Z,101309.66
2022-12-03T23:44:49.160Z,101319.72
2022-12-03T23:47:34.492Z,101333.56
2022-12-03T23:50:19.541Z,101326.06
2022-12-03T23:53:04.732Z,101306.47
2022-12-03T23:55:49.738Z,101328.63
2022-12-03T23:58:35.302Z,101330.19
